sensor_id;sensor_type;location;lat;lon;timestamp;P1;durP1;ratioP1;P2;durP2;ratioP2
23586;SDS011;11971;51.148;4.104;2023-03-09T00:02:15;68.20;;;33.67;;
23586;SDS011;11971;51.148;4.104;2023-03-09T00:04:42;66.32;;;33.50;;
23586;SDS011;11971;51.148;4.104;2023-03-09T00:07:08;73.57;;;36.10;;
23586;SDS011;11971;51.148;4.104;2023-03-09T00:09:35;86.72;;;39.67;;
23586;SDS011;11971;51.148;4.104;2023-03-09T00:12:03;69.53;;;35.43;;
23586;SDS011;11971;51.148;4.104;2023-03-09T00:14:31;64.78;;;33.97;;
23586;SDS011;11971;51.148;4.104;2023-03-09T00:16:59;87.72;;;40.03;;
23586;SDS011;11971;51.148;4.104;2023-03-09T00:19:25;92.53;;;39.28;;
23586;SDS011;11971;51.148;4.104;2023-03-09T00:21:53;85.70;;;39.50;;
23586;SDS011;11971;51.148;4.104;2023-03-09T00:24:21;85.80;;;40.17;;
23586;SDS011;11971;51.148;4.104;2023-03-09T00:26:52;94.10;;;40.97;;
23586;SDS011;11971;51.148;4.104;2023-03-09T00:29:19;85.45;;;39.78;;
23586;SDS011;11971;51.148;4.104;2023-03-09T00:31:46;96.18;;;40.97;;
23586;SDS011;11971;51.148;4.104;2023-03-09T00:34:15;91.05;;;40.53;;
23586;SDS011;11971;51.148;4.104;2023-03-09T00:36:42;100.75;;;42.45;;
23586;SDS011;11971;51.148;4.104;2023-03-09T00:39:09;81.53;;;39.83;;
23586;SDS011;11971;51.148;4.104;2023-03-09T00:41:36;88.93;;;40.55;;
23586;SDS011;11971;51.148;4.104;2023-03-09T00:44:03;85.47;;;40.53;;
23586;SDS011;11971;51.148;4.104;2023-03-09T00:46:30;87.82;;;41.00;;
23586;SDS011;11971;51.148;4.104;2023-03-09T00:48:57;90.15;;;40.38;;
23586;SDS011;11971;51.148;4.104;2023-03-09T00:51:26;87.68;;;40.80;;
23586;SDS011;11971;51.148;4.104;2023-03-09T00:53:53;94.20;;;41.28;;
23586;SDS011;11971;51.148;4.104;2023-03-09T00:56:21;90.28;;;41.90;;
23586;SDS011;11971;51.148;4.104;2023-03-09T00:58:51;89.40;;;39.75;;
23586;SDS011;11971;51.148;4.104;2023-03-09T01:01:18;87.70;;;41.20;;
23586;SDS011;11971;51.148;4.104;2023-03-09T01:03:45;93.55;;;42.47;;
23586;SDS011;11971;51.148;4.104;2023-03-09T01:06:12;94.38;;;42.75;;
23586;SDS011;11971;51.148;4.104;2023-03-09T01:08:40;91.43;;;40.25;;
23586;SDS011;11971;51.148;4.104;2023-03-09T01:11:07;93.95;;;42.33;;
23586;SDS011;11971;51.148;4.104;2023-03-09T01:13:35;94.05;;;41.92;;
23586;SDS011;11971;51.148;4.104;2023-03-09T01:16:03;101.40;;;43.20;;
23586;SDS011;11971;51.148;4.104;2023-03-09T01:18:30;93.95;;;42.63;;
23586;SDS011;11971;51.148;4.104;2023-03-09T01:20:57;98.82;;;42.40;;
23586;SDS011;11971;51.148;4.104;2023-03-09T01:23:24;93.00;;;41.50;;
23586;SDS011;11971;51.148;4.104;2023-03-09T01:25:53;94.13;;;43.30;;
23586;SDS011;11971;51.148;4.104;2023-03-09T01:28:19;89.72;;;41.83;;
23586;SDS011;11971;51.148;4.104;2023-03-09T01:30:46;99.28;;;42.20;;
23586;SDS011;11971;51.148;4.104;2023-03-09T01:33:13;92.68;;;41.90;;
23586;SDS011;11971;51.148;4.104;2023-03-09T01:35:40;98.43;;;42.97;;
23586;SDS011;11971;51.148;4.104;2023-03-09T01:38:06;89.38;;;41.65;;
23586;SDS011;11971;51.148;4.104;2023-03-09T01:40:33;96.82;;;41.75;;
23586;SDS011;11971;51.148;4.104;2023-03-09T01:48:52;101.22;;;43.50;;
23586;SDS011;11971;51.148;4.104;2023-03-09T01:51:23;98.18;;;43.70;;
23586;SDS011;11971;51.148;4.104;2023-03-09T01:53:51;94.03;;;42.63;;
23586;SDS011;11971;51.148;4.104;2023-03-09T01:56:19;95.30;;;42.03;;
23586;SDS011;11971;51.148;4.104;2023-03-09T01:58:48;96.50;;;42.35;;
23586;SDS011;11971;51.148;4.104;2023-03-09T02:01:17;95.30;;;43.13;;
23586;SDS011;11971;51.148;4.104;2023-03-09T02:03:45;95.18;;;42.67;;
23586;SDS011;11971;51.148;4.104;2023-03-09T02:06:14;90.05;;;40.83;;
23586;SDS011;11971;51.148;4.104;2023-03-09T02:08:44;89.47;;;42.13;;
23586;SDS011;11971;51.148;4.104;2023-03-09T02:11:16;87.78;;;41.90;;
23586;SDS011;11971;51.148;4.104;2023-03-09T02:13:45;86.25;;;39.08;;
23586;SDS011;11971;51.148;4.104;2023-03-09T02:16:14;98.90;;;43.30;;
23586;SDS011;11971;51.148;4.104;2023-03-09T02:18:41;88.28;;;41.20;;
23586;SDS011;11971;51.148;4.104;2023-03-09T02:21:10;89.97;;;41.05;;
23586;SDS011;11971;51.148;4.104;2023-03-09T02:23:44;92.55;;;41.45;;
23586;SDS011;11971;51.148;4.104;2023-03-09T02:26:15;87.75;;;41.08;;
23586;SDS011;11971;51.148;4.104;2023-03-09T02:28:48;93.53;;;41.13;;
23586;SDS011;11971;51.148;4.104;2023-03-09T02:31:15;95.38;;;40.30;;
23586;SDS011;11971;51.148;4.104;2023-03-09T02:33:42;90.10;;;40.33;;
23586;SDS011;11971;51.148;4.104;2023-03-09T02:36:09;87.40;;;40.63;;
23586;SDS011;11971;51.148;4.104;2023-03-09T02:38:36;90.93;;;41.65;;
23586;SDS011;11971;51.148;4.104;2023-03-09T02:41:03;92.50;;;41.28;;
23586;SDS011;11971;51.148;4.104;2023-03-09T02:43:32;89.50;;;39.35;;
23586;SDS011;11971;51.148;4.104;2023-03-09T02:46:01;90.85;;;40.08;;
23586;SDS011;11971;51.148;4.104;2023-03-09T02:48:28;91.35;;;40.00;;
23586;SDS011;11971;51.148;4.104;2023-03-09T02:50:55;90.15;;;40.50;;
23586;SDS011;11971;51.148;4.104;2023-03-09T02:53:21;87.25;;;41.13;;
23586;SDS011;11971;51.148;4.104;2023-03-09T02:55:48;90.90;;;40.47;;
23586;SDS011;11971;51.148;4.104;2023-03-09T02:58:15;91.57;;;41.33;;
23586;SDS011;11971;51.148;4.104;2023-03-09T03:00:41;93.00;;;40.28;;
23586;SDS011;11971;51.148;4.104;2023-03-09T03:03:09;82.93;;;39.17;;
23586;SDS011;11971;51.148;4.104;2023-03-09T03:05:36;89.13;;;40.28;;
23586;SDS011;11971;51.148;4.104;2023-03-09T03:08:03;92.25;;;41.20;;
23586;SDS011;11971;51.148;4.104;2023-03-09T03:10:30;85.82;;;40.72;;
23586;SDS011;11971;51.148;4.104;2023-03-09T03:12:56;91.13;;;39.95;;
23586;SDS011;11971;51.148;4.104;2023-03-09T03:15:23;87.72;;;40.10;;
23586;SDS011;11971;51.148;4.104;2023-03-09T03:17:50;88.15;;;40.20;;
23586;SDS011;11971;51.148;4.104;2023-03-09T03:20:18;87.85;;;39.72;;
23586;SDS011;11971;51.148;4.104;2023-03-09T03:22:45;93.32;;;40.42;;
23586;SDS011;11971;51.148;4.104;2023-03-09T03:25:12;90.43;;;41.00;;
23586;SDS011;11971;51.148;4.104;2023-03-09T03:27:39;92.80;;;39.90;;
23586;SDS011;11971;51.148;4.104;2023-03-09T03:30:07;88.72;;;39.60;;
23586;SDS011;11971;51.148;4.104;2023-03-09T03:32:34;86.17;;;39.90;;
23586;SDS011;11971;51.148;4.104;2023-03-09T03:35:01;92.28;;;40.30;;
23586;SDS011;11971;51.148;4.104;2023-03-09T03:37:29;88.57;;;39.78;;
23586;SDS011;11971;51.148;4.104;2023-03-09T03:39:56;86.72;;;40.28;;
23586;SDS011;11971;51.148;4.104;2023-03-09T03:42:23;87.40;;;38.65;;
23586;SDS011;11971;51.148;4.104;2023-03-09T03:44:53;92.43;;;41.13;;
23586;SDS011;11971;51.148;4.104;2023-03-09T03:47:19;92.70;;;41.25;;
23586;SDS011;11971;51.148;4.104;2023-03-09T03:49:46;89.25;;;40.85;;
23586;SDS011;11971;51.148;4.104;2023-03-09T03:52:12;93.20;;;39.53;;
23586;SDS011;11971;51.148;4.104;2023-03-09T03:54:41;100.50;;;41.42;;
23586;SDS011;11971;51.148;4.104;2023-03-09T03:57:08;88.13;;;40.13;;
23586;SDS011;11971;51.148;4.104;2023-03-09T03:59:34;92.10;;;41.28;;
23586;SDS011;11971;51.148;4.104;2023-03-09T04:02:01;91.22;;;39.63;;
23586;SDS011;11971;51.148;4.104;2023-03-09T04:04:28;94.18;;;40.90;;
23586;SDS011;11971;51.148;4.104;2023-03-09T04:06:54;101.15;;;42.08;;
23586;SDS011;11971;51.148;4.104;2023-03-09T04:09:21;91.55;;;40.45;;
23586;SDS011;11971;51.148;4.104;2023-03-09T04:11:50;92.78;;;40.92;;
23586;SDS011;11971;51.148;4.104;2023-03-09T04:14:16;91.47;;;42.05;;
23586;SDS011;11971;51.148;4.104;2023-03-09T04:16:43;94.15;;;41.60;;
23586;SDS011;11971;51.148;4.104;2023-03-09T04:19:10;89.82;;;40.80;;
23586;SDS011;11971;51.148;4.104;2023-03-09T04:21:36;86.10;;;40.40;;
23586;SDS011;11971;51.148;4.104;2023-03-09T04:24:03;87.70;;;40.58;;
23586;SDS011;11971;51.148;4.104;2023-03-09T04:26:31;86.63;;;39.85;;
23586;SDS011;11971;51.148;4.104;2023-03-09T04:28:59;91.55;;;40.35;;
23586;SDS011;11971;51.148;4.104;2023-03-09T04:31:25;89.22;;;39.58;;
23586;SDS011;11971;51.148;4.104;2023-03-09T04:33:52;94.03;;;40.50;;
23586;SDS011;11971;51.148;4.104;2023-03-09T04:36:19;91.25;;;42.00;;
23586;SDS011;11971;51.148;4.104;2023-03-09T04:38:46;93.65;;;41.60;;
23586;SDS011;11971;51.148;4.104;2023-03-09T04:41:12;95.10;;;41.47;;
23586;SDS011;11971;51.148;4.104;2023-03-09T04:43:39;91.72;;;40.30;;
23586;SDS011;11971;51.148;4.104;2023-03-09T04:46:07;96.72;;;42.35;;
23586;SDS011;11971;51.148;4.104;2023-03-09T04:48:34;98.60;;;42.07;;
23586;SDS011;11971;51.148;4.104;2023-03-09T04:51:00;102.90;;;41.97;;
23586;SDS011;11971;51.148;4.104;2023-03-09T04:53:27;107.55;;;42.72;;
23586;SDS011;11971;51.148;4.104;2023-03-09T04:55:54;99.03;;;42.65;;
23586;SDS011;11971;51.148;4.104;2023-03-09T04:58:20;102.80;;;43.53;;
23586;SDS011;11971;51.148;4.104;2023-03-09T05:00:47;95.65;;;41.08;;
23586;SDS011;11971;51.148;4.104;2023-03-09T05:03:15;89.78;;;40.88;;
23586;SDS011;11971;51.148;4.104;2023-03-09T05:05:42;90.38;;;40.78;;
23586;SDS011;11971;51.148;4.104;2023-03-09T05:08:08;91.10;;;41.42;;
23586;SDS011;11971;51.148;4.104;2023-03-09T05:10:35;87.60;;;40.00;;
23586;SDS011;11971;51.148;4.104;2023-03-09T05:13:02;93.53;;;41.22;;
23586;SDS011;11971;51.148;4.104;2023-03-09T05:15:28;87.18;;;39.33;;
23586;SDS011;11971;51.148;4.104;2023-03-09T05:17:55;86.57;;;38.83;;
23586;SDS011;11971;51.148;4.104;2023-03-09T05:20:23;79.10;;;38.53;;
23586;SDS011;11971;51.148;4.104;2023-03-09T05:22:52;85.28;;;39.55;;
23586;SDS011;11971;51.148;4.104;2023-03-09T05:25:19;81.45;;;38.63;;
23586;SDS011;11971;51.148;4.104;2023-03-09T05:27:47;84.68;;;38.97;;
23586;SDS011;11971;51.148;4.104;2023-03-09T05:30:14;87.43;;;39.53;;
23586;SDS011;11971;51.148;4.104;2023-03-09T05:32:41;82.82;;;37.90;;
23586;SDS011;11971;51.148;4.104;2023-03-09T05:35:08;82.38;;;38.65;;
23586;SDS011;11971;51.148;4.104;2023-03-09T05:37:36;82.93;;;39.33;;
23586;SDS011;11971;51.148;4.104;2023-03-09T05:40:04;83.22;;;37.75;;
23586;SDS011;11971;51.148;4.104;2023-03-09T05:42:31;83.93;;;38.97;;
23586;SDS011;11971;51.148;4.104;2023-03-09T05:44:58;81.30;;;38.65;;
23586;SDS011;11971;51.148;4.104;2023-03-09T05:47:27;82.70;;;39.10;;
23586;SDS011;11971;51.148;4.104;2023-03-09T05:49:54;87.32;;;39.40;;
23586;SDS011;11971;51.148;4.104;2023-03-09T05:52:20;86.60;;;40.05;;
23586;SDS011;11971;51.148;4.104;2023-03-09T05:54:49;83.05;;;39.13;;
23586;SDS011;11971;51.148;4.104;2023-03-09T05:57:15;83.55;;;38.58;;
23586;SDS011;11971;51.148;4.104;2023-03-09T05:59:42;87.18;;;39.90;;
23586;SDS011;11971;51.148;4.104;2023-03-09T06:02:09;86.70;;;39.72;;
23586;SDS011;11971;51.148;4.104;2023-03-09T06:04:35;87.20;;;39.45;;
23586;SDS011;11971;51.148;4.104;2023-03-09T06:07:02;91.03;;;41.25;;
23586;SDS011;11971;51.148;4.104;2023-03-09T06:09:29;83.75;;;39.90;;
23586;SDS011;11971;51.148;4.104;2023-03-09T06:11:57;90.97;;;39.67;;
23586;SDS011;11971;51.148;4.104;2023-03-09T06:14:25;87.30;;;39.38;;
23586;SDS011;11971;51.148;4.104;2023-03-09T06:16:52;84.85;;;40.42;;
23586;SDS011;11971;51.148;4.104;2023-03-09T06:19:18;88.88;;;40.58;;
23586;SDS011;11971;51.148;4.104;2023-03-09T06:21:45;87.90;;;40.42;;
23586;SDS011;11971;51.148;4.104;2023-03-09T06:24:12;85.95;;;39.03;;
23586;SDS011;11971;51.148;4.104;2023-03-09T06:26:38;83.43;;;38.78;;
23586;SDS011;11971;51.148;4.104;2023-03-09T06:29:06;90.15;;;40.13;;
23586;SDS011;11971;51.148;4.104;2023-03-09T06:31:33;87.28;;;40.40;;
23586;SDS011;11971;51.148;4.104;2023-03-09T06:34:00;86.07;;;40.28;;
23586;SDS011;11971;51.148;4.104;2023-03-09T06:36:27;87.28;;;39.50;;
23586;SDS011;11971;51.148;4.104;2023-03-09T06:38:54;84.00;;;39.97;;
23586;SDS011;11971;51.148;4.104;2023-03-09T06:41:20;91.90;;;41.38;;
23586;SDS011;11971;51.148;4.104;2023-03-09T06:43:54;88.80;;;40.35;;
23586;SDS011;11971;51.148;4.104;2023-03-09T06:46:22;84.03;;;39.35;;
23586;SDS011;11971;51.148;4.104;2023-03-09T06:48:49;87.82;;;40.33;;
23586;SDS011;11971;51.148;4.104;2023-03-09T06:51:16;81.63;;;38.75;;
23586;SDS011;11971;51.148;4.104;2023-03-09T06:53:43;88.63;;;39.00;;
23586;SDS011;11971;51.148;4.104;2023-03-09T06:56:10;85.38;;;39.33;;
23586;SDS011;11971;51.148;4.104;2023-03-09T06:58:37;88.18;;;39.85;;
23586;SDS011;11971;51.148;4.104;2023-03-09T07:01:07;87.85;;;39.38;;
23586;SDS011;11971;51.148;4.104;2023-03-09T07:03:35;91.78;;;39.28;;
23586;SDS011;11971;51.148;4.104;2023-03-09T07:06:03;92.93;;;41.28;;
23586;SDS011;11971;51.148;4.104;2023-03-09T07:08:29;92.60;;;40.20;;
23586;SDS011;11971;51.148;4.104;2023-03-09T07:10:56;86.13;;;39.58;;
23586;SDS011;11971;51.148;4.104;2023-03-09T07:13:23;87.95;;;40.35;;
23586;SDS011;11971;51.148;4.104;2023-03-09T07:15:49;90.40;;;40.60;;
23586;SDS011;11971;51.148;4.104;2023-03-09T07:18:16;87.13;;;40.22;;
23586;SDS011;11971;51.148;4.104;2023-03-09T07:20:45;88.10;;;39.95;;
23586;SDS011;11971;51.148;4.104;2023-03-09T07:23:12;97.32;;;41.35;;
23586;SDS011;11971;51.148;4.104;2023-03-09T07:25:39;89.90;;;40.83;;
23586;SDS011;11971;51.148;4.104;2023-03-09T07:28:06;90.22;;;40.15;;
23586;SDS011;11971;51.148;4.104;2023-03-09T07:30:35;91.50;;;40.05;;
23586;SDS011;11971;51.148;4.104;2023-03-09T07:33:02;90.95;;;40.95;;
23586;SDS011;11971;51.148;4.104;2023-03-09T07:35:29;89.15;;;40.10;;
23586;SDS011;11971;51.148;4.104;2023-03-09T07:37:57;94.88;;;41.05;;
23586;SDS011;11971;51.148;4.104;2023-03-09T07:40:23;98.78;;;43.20;;
23586;SDS011;11971;51.148;4.104;2023-03-09T07:42:50;95.53;;;41.17;;
23586;SDS011;11971;51.148;4.104;2023-03-09T07:45:18;92.17;;;39.90;;
23586;SDS011;11971;51.148;4.104;2023-03-09T07:47:46;98.80;;;41.35;;
23586;SDS011;11971;51.148;4.104;2023-03-09T07:50:13;99.30;;;41.28;;
23586;SDS011;11971;51.148;4.104;2023-03-09T07:52:39;97.93;;;41.97;;
23586;SDS011;11971;51.148;4.104;2023-03-09T07:55:08;97.07;;;42.80;;
23586;SDS011;11971;51.148;4.104;2023-03-09T07:57:36;98.38;;;42.08;;
23586;SDS011;11971;51.148;4.104;2023-03-09T08:00:04;103.57;;;44.10;;
23586;SDS011;11971;51.148;4.104;2023-03-09T08:02:36;104.57;;;43.55;;
23586;SDS011;11971;51.148;4.104;2023-03-09T08:05:03;105.93;;;43.88;;
23586;SDS011;11971;51.148;4.104;2023-03-09T08:07:31;96.93;;;41.88;;
23586;SDS011;11971;51.148;4.104;2023-03-09T08:09:58;106.43;;;43.53;;
23586;SDS011;11971;51.148;4.104;2023-03-09T08:12:26;105.80;;;44.03;;
23586;SDS011;11971;51.148;4.104;2023-03-09T08:14:53;112.63;;;44.47;;
23586;SDS011;11971;51.148;4.104;2023-03-09T08:17:20;107.72;;;44.63;;
23586;SDS011;11971;51.148;4.104;2023-03-09T08:19:46;110.40;;;45.60;;
23586;SDS011;11971;51.148;4.104;2023-03-09T08:22:13;110.57;;;44.55;;
23586;SDS011;11971;51.148;4.104;2023-03-09T08:27:08;103.75;;;43.85;;
23586;SDS011;11971;51.148;4.104;2023-03-09T08:29:36;102.03;;;44.70;;
23586;SDS011;11971;51.148;4.104;2023-03-09T08:32:04;104.40;;;44.10;;
23586;SDS011;11971;51.148;4.104;2023-03-09T08:34:31;104.97;;;44.43;;
23586;SDS011;11971;51.148;4.104;2023-03-09T08:36:58;115.13;;;45.53;;
23586;SDS011;11971;51.148;4.104;2023-03-09T08:39:25;108.95;;;44.47;;
23586;SDS011;11971;51.148;4.104;2023-03-09T08:41:51;116.68;;;46.25;;
23586;SDS011;11971;51.148;4.104;2023-03-09T08:44:18;103.85;;;45.22;;
23586;SDS011;11971;51.148;4.104;2023-03-09T08:46:46;116.72;;;46.00;;
23586;SDS011;11971;51.148;4.104;2023-03-09T08:49:13;111.65;;;45.85;;
23586;SDS011;11971;51.148;4.104;2023-03-09T08:51:40;108.30;;;46.05;;
23586;SDS011;11971;51.148;4.104;2023-03-09T08:54:06;110.65;;;45.60;;
23586;SDS011;11971;51.148;4.104;2023-03-09T08:56:33;107.50;;;45.65;;
23586;SDS011;11971;51.148;4.104;2023-03-09T08:59:00;104.30;;;44.55;;
23586;SDS011;11971;51.148;4.104;2023-03-09T09:01:26;109.63;;;46.40;;
23586;SDS011;11971;51.148;4.104;2023-03-09T09:03:54;108.13;;;45.25;;
23586;SDS011;11971;51.148;4.104;2023-03-09T09:06:21;105.22;;;45.22;;
23586;SDS011;11971;51.148;4.104;2023-03-09T09:08:48;104.28;;;44.78;;
23586;SDS011;11971;51.148;4.104;2023-03-09T09:11:15;104.32;;;44.22;;
23586;SDS011;11971;51.148;4.104;2023-03-09T09:13:43;103.97;;;45.53;;
23586;SDS011;11971;51.148;4.104;2023-03-09T09:16:10;98.18;;;44.28;;
23586;SDS011;11971;51.148;4.104;2023-03-09T09:18:37;104.97;;;44.95;;
23586;SDS011;11971;51.148;4.104;2023-03-09T09:21:06;106.63;;;46.05;;
23586;SDS011;11971;51.148;4.104;2023-03-09T09:23:33;103.95;;;43.33;;
23586;SDS011;11971;51.148;4.104;2023-03-09T09:26:00;106.60;;;45.00;;
23586;SDS011;11971;51.148;4.104;2023-03-09T09:28:26;106.25;;;44.47;;
23586;SDS011;11971;51.148;4.104;2023-03-09T09:30:53;101.43;;;43.63;;
23586;SDS011;11971;51.148;4.104;2023-03-09T09:33:20;99.95;;;43.33;;
23586;SDS011;11971;51.148;4.104;2023-03-09T09:35:53;100.57;;;44.33;;
23586;SDS011;11971;51.148;4.104;2023-03-09T09:38:23;102.63;;;43.65;;
23586;SDS011;11971;51.148;4.104;2023-03-09T09:40:50;100.93;;;44.63;;
23586;SDS011;11971;51.148;4.104;2023-03-09T09:43:18;108.07;;;46.13;;
23586;SDS011;11971;51.148;4.104;2023-03-09T09:45:44;103.90;;;44.35;;
23586;SDS011;11971;51.148;4.104;2023-03-09T09:48:12;100.35;;;43.25;;
23586;SDS011;11971;51.148;4.104;2023-03-09T09:50:45;101.07;;;44.22;;
23586;SDS011;11971;51.148;4.104;2023-03-09T09:53:21;98.63;;;43.78;;
23586;SDS011;11971;51.148;4.104;2023-03-09T09:55:54;97.38;;;43.13;;
23586;SDS011;11971;51.148;4.104;2023-03-09T09:58:25;105.22;;;44.08;;
23586;SDS011;11971;51.148;4.104;2023-03-09T10:00:56;102.93;;;44.25;;
23586;SDS011;11971;51.148;4.104;2023-03-09T10:03:26;98.15;;;42.97;;
23586;SDS011;11971;51.148;4.104;2023-03-09T10:05:55;96.93;;;41.92;;
23586;SDS011;11971;51.148;4.104;2023-03-09T10:10:54;93.38;;;41.53;;
23586;SDS011;11971;51.148;4.104;2023-03-09T10:13:27;97.30;;;42.53;;
23586;SDS011;11971;51.148;4.104;2023-03-09T10:15:55;106.68;;;42.85;;
23586;SDS011;11971;51.148;4.104;2023-03-09T10:18:24;93.03;;;42.17;;
23586;SDS011;11971;51.148;4.104;2023-03-09T10:20:56;94.85;;;41.60;;
23586;SDS011;11971;51.148;4.104;2023-03-09T10:23:27;91.20;;;41.45;;
23586;SDS011;11971;51.148;4.104;2023-03-09T10:25:59;94.75;;;42.03;;
23586;SDS011;11971;51.148;4.104;2023-03-09T10:28:29;87.88;;;40.38;;
23586;SDS011;11971;51.148;4.104;2023-03-09T10:31:01;91.38;;;41.13;;
23586;SDS011;11971;51.148;4.104;2023-03-09T10:33:33;96.75;;;42.30;;
23586;SDS011;11971;51.148;4.104;2023-03-09T10:36:05;89.78;;;40.67;;
23586;SDS011;11971;51.148;4.104;2023-03-09T10:38:34;91.25;;;41.03;;
23586;SDS011;11971;51.148;4.104;2023-03-09T10:41:03;90.10;;;41.00;;
23586;SDS011;11971;51.148;4.104;2023-03-09T10:43:32;96.93;;;41.83;;
23586;SDS011;11971;51.148;4.104;2023-03-09T10:46:07;102.63;;;43.17;;
23586;SDS011;11971;51.148;4.104;2023-03-09T10:48:37;95.47;;;42.80;;
23586;SDS011;11971;51.148;4.104;2023-03-09T10:51:05;96.95;;;41.08;;
23586;SDS011;11971;51.148;4.104;2023-03-09T10:53:36;97.38;;;42.53;;
23586;SDS011;11971;51.148;4.104;2023-03-09T10:56:11;95.60;;;41.67;;
23586;SDS011;11971;51.148;4.104;2023-03-09T10:58:39;97.85;;;41.53;;
23586;SDS011;11971;51.148;4.104;2023-03-09T11:01:20;103.63;;;43.40;;
23586;SDS011;11971;51.148;4.104;2023-03-09T11:03:47;101.38;;;43.17;;
23586;SDS011;11971;51.148;4.104;2023-03-09T11:09:10;95.15;;;41.65;;
23586;SDS011;11971;51.148;4.104;2023-03-09T11:11:38;93.47;;;41.88;;
23586;SDS011;11971;51.148;4.104;2023-03-09T11:14:15;93.45;;;41.67;;
23586;SDS011;11971;51.148;4.104;2023-03-09T11:16:48;97.90;;;42.08;;
23586;SDS011;11971;51.148;4.104;2023-03-09T11:19:16;99.35;;;42.55;;
23586;SDS011;11971;51.148;4.104;2023-03-09T11:21:49;97.22;;;42.58;;
23586;SDS011;11971;51.148;4.104;2023-03-09T11:24:22;98.30;;;42.42;;
23586;SDS011;11971;51.148;4.104;2023-03-09T11:26:53;99.53;;;41.50;;
23586;SDS011;11971;51.148;4.104;2023-03-09T11:29:24;95.32;;;41.95;;
23586;SDS011;11971;51.148;4.104;2023-03-09T11:31:54;101.75;;;42.45;;
23586;SDS011;11971;51.148;4.104;2023-03-09T11:34:22;95.30;;;41.22;;
23586;SDS011;11971;51.148;4.104;2023-03-09T11:36:53;100.55;;;42.83;;
23586;SDS011;11971;51.148;4.104;2023-03-09T11:39:26;100.20;;;43.47;;
23586;SDS011;11971;51.148;4.104;2023-03-09T11:41:55;92.20;;;41.25;;
23586;SDS011;11971;51.148;4.104;2023-03-09T11:44:23;96.15;;;41.72;;
23586;SDS011;11971;51.148;4.104;2023-03-09T11:46:53;95.72;;;42.15;;
23586;SDS011;11971;51.148;4.104;2023-03-09T11:49:22;96.13;;;42.30;;
23586;SDS011;11971;51.148;4.104;2023-03-09T11:51:51;87.22;;;40.15;;
23586;SDS011;11971;51.148;4.104;2023-03-09T11:54:20;96.57;;;41.63;;
23586;SDS011;11971;51.148;4.104;2023-03-09T11:56:52;85.43;;;39.03;;
23586;SDS011;11971;51.148;4.104;2023-03-09T11:59:19;85.38;;;39.25;;
23586;SDS011;11971;51.148;4.104;2023-03-09T12:01:49;88.82;;;39.80;;
23586;SDS011;11971;51.148;4.104;2023-03-09T12:04:18;89.07;;;40.33;;
23586;SDS011;11971;51.148;4.104;2023-03-09T12:06:48;89.68;;;39.90;;
23586;SDS011;11971;51.148;4.104;2023-03-09T12:09:21;84.90;;;39.10;;
23586;SDS011;11971;51.148;4.104;2023-03-09T12:11:53;85.72;;;39.60;;
23586;SDS011;11971;51.148;4.104;2023-03-09T12:14:23;87.05;;;39.30;;
23586;SDS011;11971;51.148;4.104;2023-03-09T12:16:54;86.63;;;39.63;;
23586;SDS011;11971;51.148;4.104;2023-03-09T12:19:23;84.15;;;38.90;;
23586;SDS011;11971;51.148;4.104;2023-03-09T12:21:58;86.63;;;39.80;;
23586;SDS011;11971;51.148;4.104;2023-03-09T12:24:28;86.20;;;39.03;;
23586;SDS011;11971;51.148;4.104;2023-03-09T12:27:01;85.25;;;39.22;;
23586;SDS011;11971;51.148;4.104;2023-03-09T12:29:31;90.05;;;40.42;;
23586;SDS011;11971;51.148;4.104;2023-03-09T12:32:14;89.90;;;40.28;;
23586;SDS011;11971;51.148;4.104;2023-03-09T12:34:44;91.78;;;40.88;;
23586;SDS011;11971;51.148;4.104;2023-03-09T12:40:34;88.60;;;41.00;;
23586;SDS011;11971;51.148;4.104;2023-03-09T12:49:25;87.18;;;40.42;;
23586;SDS011;11971;51.148;4.104;2023-03-09T12:52:01;91.38;;;40.15;;
23586;SDS011;11971;51.148;4.104;2023-03-09T12:54:42;89.13;;;39.78;;
23586;SDS011;11971;51.148;4.104;2023-03-09T12:57:10;85.45;;;39.05;;
23586;SDS011;11971;51.148;4.104;2023-03-09T12:59:39;89.65;;;40.35;;
23586;SDS011;11971;51.148;4.104;2023-03-09T13:03:44;93.00;;;40.10;;
23586;SDS011;11971;51.148;4.104;2023-03-09T13:06:21;88.80;;;40.05;;
23586;SDS011;11971;51.148;4.104;2023-03-09T13:08:50;91.25;;;40.65;;
23586;SDS011;11971;51.148;4.104;2023-03-09T13:11:30;92.88;;;40.75;;
23586;SDS011;11971;51.148;4.104;2023-03-09T13:13:59;94.65;;;42.20;;
23586;SDS011;11971;51.148;4.104;2023-03-09T13:16:36;95.72;;;41.80;;
23586;SDS011;11971;51.148;4.104;2023-03-09T13:22:20;91.90;;;41.53;;
23586;SDS011;11971;51.148;4.104;2023-03-09T13:25:09;95.68;;;42.58;;
23586;SDS011;11971;51.148;4.104;2023-03-09T13:27:39;97.35;;;43.05;;
23586;SDS011;11971;51.148;4.104;2023-03-09T13:30:13;94.18;;;42.35;;
23586;SDS011;11971;51.148;4.104;2023-03-09T13:32:47;93.50;;;41.90;;
23586;SDS011;11971;51.148;4.104;2023-03-09T13:35:16;98.00;;;43.20;;
23586;SDS011;11971;51.148;4.104;2023-03-09T13:37:46;100.60;;;42.95;;
23586;SDS011;11971;51.148;4.104;2023-03-09T13:40:24;96.32;;;42.28;;
23586;SDS011;11971;51.148;4.104;2023-03-09T13:42:52;97.13;;;42.45;;
23586;SDS011;11971;51.148;4.104;2023-03-09T13:45:20;97.22;;;41.78;;
23586;SDS011;11971;51.148;4.104;2023-03-09T13:47:50;92.15;;;42.10;;
23586;SDS011;11971;51.148;4.104;2023-03-09T13:50:20;98.28;;;44.13;;
23586;SDS011;11971;51.148;4.104;2023-03-09T13:55:26;94.28;;;41.88;;
23586;SDS011;11971;51.148;4.104;2023-03-09T13:57:53;98.22;;;42.17;;
23586;SDS011;11971;51.148;4.104;2023-03-09T14:00:21;100.90;;;42.65;;
23586;SDS011;11971;51.148;4.104;2023-03-09T14:02:51;98.43;;;42.78;;
23586;SDS011;11971;51.148;4.104;2023-03-09T14:05:20;97.28;;;42.58;;
23586;SDS011;11971;51.148;4.104;2023-03-09T14:07:49;99.63;;;44.22;;
23586;SDS011;11971;51.148;4.104;2023-03-09T14:10:18;96.65;;;43.05;;
23586;SDS011;11971;51.148;4.104;2023-03-09T14:12:50;101.78;;;43.70;;
23586;SDS011;11971;51.148;4.104;2023-03-09T14:15:18;94.78;;;42.47;;
23586;SDS011;11971;51.148;4.104;2023-03-09T14:17:45;99.93;;;43.03;;
23586;SDS011;11971;51.148;4.104;2023-03-09T14:20:16;100.75;;;43.35;;
23586;SDS011;11971;51.148;4.104;2023-03-09T14:22:45;97.47;;;41.47;;
23586;SDS011;11971;51.148;4.104;2023-03-09T14:27:56;97.05;;;41.90;;
23586;SDS011;11971;51.148;4.104;2023-03-09T14:30:30;102.07;;;42.47;;
23586;SDS011;11971;51.148;4.104;2023-03-09T14:33:06;96.15;;;42.42;;
23586;SDS011;11971;51.148;4.104;2023-03-09T14:35:47;99.32;;;43.08;;
23586;SDS011;11971;51.148;4.104;2023-03-09T14:38:17;99.07;;;42.95;;
23586;SDS011;11971;51.148;4.104;2023-03-09T14:40:47;105.88;;;43.92;;
23586;SDS011;11971;51.148;4.104;2023-03-09T14:43:20;102.07;;;42.92;;
23586;SDS011;11971;51.148;4.104;2023-03-09T14:46:06;101.82;;;43.13;;
23586;SDS011;11971;51.148;4.104;2023-03-09T14:48:34;96.40;;;42.20;;
23586;SDS011;11971;51.148;4.104;2023-03-09T14:51:01;97.80;;;41.53;;
23586;SDS011;11971;51.148;4.104;2023-03-09T14:53:30;97.80;;;42.88;;
23586;SDS011;11971;51.148;4.104;2023-03-09T14:55:56;97.40;;;40.60;;
23586;SDS011;11971;51.148;4.104;2023-03-09T14:58:23;97.07;;;39.13;;
23586;SDS011;11971;51.148;4.104;2023-03-09T15:00:49;96.65;;;40.78;;